Lonsdale, Minnesota
Current Conditions -  °F | °C
As of 4:34 AM on Sunday 26 Oct 2014 (Local Time) from KFBL Reporting Station
Clear Clear  
Wind Chill: 30°   Ceiling: Unl
Heat Index: 30°   Visibility: 10mi
Dew Point: 27°   Wind: 0mph
Humidity: 86%   Direction: NA
Pressure: 30.02"   Gusts: NA
Location:  44.48°N, 93.43°W
Report Text: KFBL 260934Z AUTO 00000KT 10SM CLR M01/M03 A3002 RMK AO2
Loading
Personal Weather Stations






























Interactive Weather Map
Tropical Storm Tracking
New forecast layout! Learn more

10-Day Weather Forecast

Advertisements
Track Severe Weather on mobile